createdAt,value
2019-01-09T00:00:10.016Z,15.93
2019-01-09T00:02:40.690Z,14.45
2019-01-09T00:05:11.386Z,15.20
2019-01-09T00:07:42.011Z,12.73
2019-01-09T00:10:12.710Z,15.38
2019-01-09T00:12:43.327Z,14.57
2019-01-09T00:15:16.909Z,14.10
2019-01-09T00:17:47.627Z,14.60
2019-01-09T00:20:19.721Z,16.90
2019-01-09T00:22:51.889Z,17.83
2019-01-09T00:25:22.602Z,16.73
2019-01-09T00:27:53.627Z,17.13
2019-01-09T00:30:26.241Z,16.77
2019-01-09T00:32:56.592Z,16.03
2019-01-09T00:35:27.348Z,13.15
2019-01-09T00:37:57.969Z,15.48
2019-01-09T00:40:28.675Z,15.57
2019-01-09T00:42:59.352Z,13.37
2019-01-09T00:45:30.106Z,14.70
2019-01-09T00:48:01.170Z,15.17
2019-01-09T00:50:31.908Z,12.93
2019-01-09T00:53:04.495Z,15.63
2019-01-09T00:55:35.239Z,15.63
2019-01-09T00:58:05.953Z,14.63
2019-01-09T01:00:40.104Z,16.40
2019-01-09T01:03:38.619Z,14.07
2019-01-09T01:06:47.234Z,14.57
2019-01-09T01:09:36.952Z,14.38
2019-01-09T01:13:00.150Z,16.27
2019-01-09T01:15:53.176Z,15.13
2019-01-09T01:18:48.941Z,13.83
2019-01-09T01:21:32.802Z,14.57
2019-01-09T01:24:24.430Z,14.30
2019-01-09T01:27:02.131Z,15.73
2019-01-09T01:30:19.286Z,14.90
2019-01-09T01:33:21.018Z,15.73
2019-01-09T01:36:07.733Z,15.72
2019-01-09T01:38:54.284Z,17.60
2019-01-09T01:41:37.907Z,14.70
2019-01-09T01:44:16.157Z,14.63
2019-01-09T01:47:26.192Z,15.27
2019-01-09T01:50:22.022Z,15.10
2019-01-09T01:53:11.668Z,13.67
2019-01-09T01:55:59.233Z,15.10
2019-01-09T01:58:49.312Z,14.07
2019-01-09T02:01:43.411Z,14.50
2019-01-09T02:04:49.731Z,14.30
2019-01-09T02:07:50.091Z,14.33
2019-01-09T02:10:59.779Z,12.95
2019-01-09T02:13:46.773Z,14.33
2019-01-09T02:16:36.662Z,15.47
2019-01-09T02:19:36.263Z,15.57
2019-01-09T02:22:32.175Z,14.30
2019-01-09T02:25:18.691Z,15.50
2019-01-09T02:27:59.650Z,14.67
2019-01-09T02:31:01.342Z,14.43
2019-01-09T02:33:31.837Z,14.57
2019-01-09T02:36:13.306Z,14.03
2019-01-09T02:38:37.657Z,15.87
2019-01-09T02:41:08.400Z,16.37
2019-01-09T02:43:38.932Z,16.90
2019-01-09T02:46:09.959Z,16.95
2019-01-09T02:48:40.549Z,15.17
2019-01-09T02:51:12.207Z,15.43
2019-01-09T02:53:42.843Z,15.83
2019-01-09T02:56:13.447Z,14.73
2019-01-09T02:58:44.421Z,15.00
2019-01-09T03:01:15.451Z,15.50
2019-01-09T03:03:46.139Z,15.20
2019-01-09T03:06:22.915Z,14.55
2019-01-09T03:08:52.564Z,16.00
2019-01-09T03:11:26.223Z,15.73
2019-01-09T03:13:56.783Z,15.83
2019-01-09T03:16:27.796Z,16.33
2019-01-09T03:19:00.228Z,15.37
2019-01-09T03:21:31.069Z,16.03
2019-01-09T03:24:02.692Z,15.00
2019-01-09T03:26:36.424Z,15.20
2019-01-09T03:29:07.468Z,15.60
2019-01-09T03:31:38.085Z,16.63
2019-01-09T03:34:09.834Z,15.97
2019-01-09T03:36:40.437Z,18.83
2019-01-09T03:39:11.387Z,15.30
2019-01-09T03:41:44.985Z,17.53
2019-01-09T03:44:17.249Z,15.13
2019-01-09T03:46:51.489Z,15.63
2019-01-09T03:49:21.969Z,16.87
2019-01-09T03:51:52.531Z,16.10
2019-01-09T03:54:23.150Z,15.83
2019-01-09T03:56:53.657Z,17.97
2019-01-09T03:59:24.335Z,17.00
2019-01-09T04:01:54.958Z,15.68
2019-01-09T04:04:25.846Z,16.07
2019-01-09T04:06:56.486Z,17.53
2019-01-09T04:09:27.057Z,16.70
2019-01-09T04:11:57.681Z,16.83
2019-01-09T04:14:30.713Z,17.93
2019-01-09T04:17:03.530Z,17.70
2019-01-09T04:19:33.278Z,16.33
2019-01-09T04:22:03.881Z,17.93
2019-01-09T04:24:35.637Z,15.40
2019-01-09T04:27:06.337Z,16.63
2019-01-09T04:29:41.792Z,18.10
2019-01-09T04:32:13.647Z,17.10
2019-01-09T04:34:44.254Z,21.30
2019-01-09T04:37:15.164Z,20.83
2019-01-09T04:39:46.632Z,18.47
2019-01-09T04:42:17.317Z,16.83
2019-01-09T04:44:47.931Z,19.43
2019-01-09T04:47:18.858Z,16.50
2019-01-09T04:49:51.244Z,16.10
2019-01-09T04:52:21.724Z,17.77
2019-01-09T04:54:52.685Z,15.43
2019-01-09T04:57:23.293Z,20.50
2019-01-09T04:59:56.941Z,19.40
2019-01-09T05:02:28.176Z,16.33
2019-01-09T05:04:58.821Z,18.47
2019-01-09T05:07:29.723Z,14.90
2019-01-09T05:10:00.707Z,16.97
2019-01-09T05:12:34.065Z,17.47
2019-01-09T05:15:04.886Z,17.77
2019-01-09T05:17:35.703Z,16.90
2019-01-09T05:20:09.458Z,18.60
2019-01-09T05:22:39.919Z,17.97
2019-01-09T05:25:10.560Z,17.80
2019-01-09T05:27:41.140Z,16.40
2019-01-09T05:30:11.808Z,17.13
2019-01-09T05:32:42.378Z,16.87
2019-01-09T05:35:13.495Z,17.73
2019-01-09T05:37:44.346Z,18.20
2019-01-09T05:40:15.568Z,19.53
2019-01-09T05:42:46.208Z,16.97
2019-01-09T05:45:17.475Z,15.47
2019-01-09T05:47:48.119Z,18.03
2019-01-09T05:50:18.676Z,16.77
2019-01-09T05:52:49.243Z,18.23
2019-01-09T05:55:20.280Z,17.87
2019-01-09T05:57:50.872Z,16.03
2019-01-09T06:00:21.629Z,17.77
2019-01-09T06:02:52.794Z,17.90
2019-01-09T06:05:23.481Z,19.25
2019-01-09T06:07:54.932Z,16.60
2019-01-09T06:10:25.494Z,16.93
2019-01-09T06:12:57.857Z,15.17
2019-01-09T06:15:32.386Z,14.60
2019-01-09T06:18:02.950Z,17.37
2019-01-09T06:20:35.322Z,15.93
2019-01-09T06:23:05.995Z,16.80
2019-01-09T06:25:36.663Z,16.37
2019-01-09T06:28:07.064Z,21.60
2019-01-09T06:30:37.983Z,19.80
2019-01-09T06:33:08.920Z,16.83
2019-01-09T06:35:41.292Z,16.97
2019-01-09T06:38:14.884Z,18.87
2019-01-09T06:40:45.648Z,16.97
2019-01-09T06:43:18.270Z,19.57
2019-01-09T06:45:49.546Z,19.73
2019-01-09T06:48:20.522Z,22.97
2019-01-09T06:50:51.121Z,19.63
2019-01-09T06:53:21.702Z,19.83
2019-01-09T06:55:52.347Z,24.77
2019-01-09T06:58:22.923Z,21.27
2019-01-09T07:00:53.427Z,22.80
2019-01-09T07:03:23.958Z,22.87
2019-01-09T07:05:55.251Z,23.83
2019-01-09T07:08:28.822Z,21.10
2019-01-09T07:10:59.457Z,20.03
2019-01-09T07:13:29.965Z,19.13
2019-01-09T07:16:01.100Z,18.07
2019-01-09T07:18:31.935Z,22.43
2019-01-09T07:21:06.390Z,21.17
2019-01-09T07:23:37.023Z,19.37
2019-01-09T07:26:07.623Z,18.40
2019-01-09T07:28:38.242Z,21.43
2019-01-09T07:31:09.399Z,19.83
2019-01-09T07:33:39.975Z,25.10
2019-01-09T07:36:10.624Z,24.30
2019-01-09T07:38:41.142Z,27.23
2019-01-09T07:41:11.989Z,26.07
2019-01-09T07:43:42.559Z,17.97
2019-01-09T07:46:13.202Z,21.35
2019-01-09T07:48:43.816Z,21.47
2019-01-09T07:51:14.362Z,20.10
2019-01-09T07:53:45.223Z,21.33
2019-01-09T07:56:19.105Z,28.97
2019-01-09T07:58:49.708Z,25.30
2019-01-09T08:01:20.359Z,23.97
2019-01-09T08:03:51.333Z,25.03
2019-01-09T08:06:21.811Z,22.17
2019-01-09T08:08:52.209Z,24.90
2019-01-09T08:11:22.830Z,22.17
2019-01-09T08:13:53.211Z,26.50
2019-01-09T08:16:23.705Z,24.23
2019-01-09T08:18:54.277Z,24.87
2019-01-09T08:21:24.939Z,23.37
2019-01-09T08:23:56.826Z,23.13
2019-01-09T08:26:27.449Z,24.27
2019-01-09T08:28:57.993Z,21.77
2019-01-09T08:31:28.584Z,20.83
2019-01-09T08:33:59.214Z,22.70
2019-01-09T08:36:29.685Z,22.37
2019-01-09T08:39:04.517Z,17.93
2019-01-09T08:41:35.286Z,18.87
2019-01-09T08:44:06.351Z,18.60
2019-01-09T08:46:36.858Z,18.20
2019-01-09T08:49:10.447Z,19.27
2019-01-09T08:51:40.892Z,18.83
2019-01-09T08:54:11.963Z,20.40
2019-01-09T08:56:43.517Z,19.07
2019-01-09T08:59:14.005Z,23.77
2019-01-09T09:01:44.438Z,21.80
2019-01-09T09:04:15.075Z,19.37
2019-01-09T09:06:45.633Z,20.60
2019-01-09T09:09:17.554Z,21.30
2019-01-09T09:11:48.135Z,21.67
2019-01-09T09:14:18.780Z,19.87
2019-01-09T09:16:49.790Z,18.47
2019-01-09T09:19:20.591Z,19.87
2019-01-09T09:21:51.011Z,20.03
2019-01-09T09:24:21.663Z,19.93
2019-01-09T09:26:52.251Z,21.40
2019-01-09T09:29:22.794Z,20.70
2019-01-09T09:31:53.456Z,21.60
2019-01-09T09:34:25.726Z,20.20
2019-01-09T09:36:56.418Z,19.93
2019-01-09T09:39:27.838Z,18.30
2019-01-09T09:41:58.315Z,18.80
2019-01-09T09:44:29.042Z,17.37
2019-01-09T09:46:59.467Z,16.40
2019-01-09T09:49:30.936Z,17.67
2019-01-09T09:52:01.868Z,18.07
2019-01-09T09:54:32.375Z,19.30
2019-01-09T09:57:03.265Z,19.33
2019-01-09T09:59:33.778Z,19.90
2019-01-09T10:02:04.441Z,19.57
2019-01-09T10:04:34.993Z,19.87
2019-01-09T10:07:05.652Z,19.10
2019-01-09T10:09:36.313Z,18.50
2019-01-09T10:12:06.861Z,19.13
2019-01-09T10:14:37.497Z,20.03
2019-01-09T10:17:08.210Z,17.90
2019-01-09T10:19:38.753Z,19.53
2019-01-09T10:22:09.335Z,18.67
2019-01-09T10:24:39.983Z,19.13
2019-01-09T10:27:10.386Z,18.13
2019-01-09T10:29:40.929Z,18.20
2019-01-09T10:32:11.477Z,18.70
2019-01-09T10:34:41.993Z,19.77
2019-01-09T10:37:12.659Z,17.70
2019-01-09T10:39:44.040Z,18.47
2019-01-09T10:42:16.606Z,17.13
2019-01-09T10:44:46.856Z,17.60
2019-01-09T10:47:17.717Z,19.73
2019-01-09T10:49:49.027Z,19.93
2019-01-09T10:52:19.659Z,21.67
2019-01-09T10:54:51.176Z,20.37
2019-01-09T10:57:21.810Z,22.07
2019-01-09T10:59:52.274Z,22.40
2019-01-09T11:02:22.910Z,21.53
2019-01-09T11:04:54.578Z,22.83
2019-01-09T11:07:25.240Z,22.93
2019-01-09T11:09:55.894Z,22.53
2019-01-09T11:12:26.448Z,22.87
2019-01-09T11:14:57.173Z,22.83
2019-01-09T11:17:27.687Z,23.83
2019-01-09T11:19:58.259Z,23.67
2019-01-09T11:22:28.907Z,24.17
2019-01-09T11:25:01.364Z,22.77
2019-01-09T11:27:31.719Z,22.80
2019-01-09T11:30:02.262Z,22.53
2019-01-09T11:32:32.938Z,21.97
2019-01-09T11:35:03.574Z,22.67
2019-01-09T11:37:34.176Z,22.30
2019-01-09T11:40:10.089Z,20.83
2019-01-09T11:42:40.688Z,19.93
2019-01-09T11:45:14.989Z,21.60
2019-01-09T11:47:45.627Z,22.63
2019-01-09T11:50:17.550Z,22.70
2019-01-09T11:52:48.537Z,22.10
2019-01-09T11:55:20.070Z,23.10
2019-01-09T11:57:51.079Z,23.80
2019-01-09T12:00:24.869Z,23.27
2019-01-09T12:02:55.550Z,24.20
2019-01-09T12:05:26.342Z,24.87
2019-01-09T12:08:01.021Z,25.87
2019-01-09T12:10:32.071Z,27.43
2019-01-09T12:13:05.857Z,26.87
2019-01-09T12:15:36.363Z,26.47
2019-01-09T12:18:07.241Z,25.00
2019-01-09T12:20:37.800Z,27.20
2019-01-09T12:23:08.378Z,25.67
2019-01-09T12:25:38.903Z,27.70
2019-01-09T12:28:09.529Z,27.10
2019-01-09T12:30:40.059Z,27.40
2019-01-09T12:33:10.615Z,27.17
2019-01-09T12:35:41.150Z,28.50
2019-01-09T12:38:11.643Z,28.27
2019-01-09T12:40:43.776Z,28.37
2019-01-09T12:43:15.984Z,27.93
2019-01-09T12:45:46.507Z,27.93
2019-01-09T12:48:17.114Z,27.83
2019-01-09T12:50:47.693Z,25.77
2019-01-09T12:53:18.285Z,24.67
2019-01-09T12:55:49.258Z,25.47
2019-01-09T12:58:19.821Z,23.53
2019-01-09T13:00:51.373Z,24.80
2019-01-09T13:03:21.885Z,23.80
2019-01-09T13:05:53.147Z,23.57
2019-01-09T13:08:23.940Z,23.27
2019-01-09T13:10:54.623Z,22.87
2019-01-09T13:13:25.227Z,22.60
2019-01-09T13:15:55.971Z,23.50
2019-01-09T13:18:29.780Z,24.27
2019-01-09T13:21:07.491Z,23.87
2019-01-09T13:23:38.071Z,25.33
2019-01-09T13:26:08.663Z,27.63
2019-01-09T13:28:39.378Z,27.33
2019-01-09T13:31:10.011Z,25.37
2019-01-09T13:33:40.637Z,25.67
2019-01-09T13:36:12.240Z,25.70
2019-01-09T13:38:43.843Z,25.93
2019-01-09T13:41:17.007Z,26.17
2019-01-09T13:43:47.455Z,25.07
2019-01-09T13:46:17.947Z,25.13
2019-01-09T13:48:48.627Z,25.43
2019-01-09T13:51:19.261Z,26.10
2019-01-09T13:53:49.876Z,26.10
2019-01-09T13:56:20.487Z,26.60
2019-01-09T13:58:51.122Z,26.80
2019-01-09T14:01:23.117Z,24.30
2019-01-09T14:03:53.955Z,25.77
2019-01-09T14:06:24.756Z,26.23
2019-01-09T14:08:55.377Z,28.33
2019-01-09T14:11:25.980Z,29.20
2019-01-09T14:13:56.543Z,26.60
2019-01-09T14:16:27.186Z,27.57
2019-01-09T14:18:57.834Z,27.07
2019-01-09T14:21:28.450Z,27.70
2019-01-09T14:23:58.852Z,26.37
2019-01-09T14:26:29.342Z,28.03
2019-01-09T14:29:00.013Z,27.80
2019-01-09T14:31:31.768Z,26.73
2019-01-09T14:34:02.239Z,26.27
2019-01-09T14:36:33.633Z,27.23
2019-01-09T14:39:06.524Z,28.23
2019-01-09T14:41:37.971Z,26.17
2019-01-09T14:44:10.067Z,27.90
2019-01-09T14:46:40.635Z,27.47
2019-01-09T14:49:11.269Z,29.87
2019-01-09T14:51:43.172Z,29.17
2019-01-09T14:54:13.977Z,29.57
2019-01-09T14:56:44.375Z,29.83
2019-01-09T14:59:14.936Z,28.97
2019-01-09T15:01:45.600Z,29.87
2019-01-09T15:04:17.663Z,27.50
2019-01-09T15:06:48.391Z,28.23
2019-01-09T15:09:25.190Z,28.53
2019-01-09T15:11:55.752Z,30.47
2019-01-09T15:14:29.551Z,30.03
2019-01-09T15:17:00.166Z,30.67
2019-01-09T15:19:31.101Z,33.00
2019-01-09T15:22:01.664Z,34.17
2019-01-09T15:24:34.330Z,32.00
2019-01-09T15:27:04.964Z,34.37
2019-01-09T15:29:35.609Z,33.53
2019-01-09T15:32:06.274Z,33.60
2019-01-09T15:34:36.868Z,33.97
2019-01-09T15:37:07.492Z,36.30
2019-01-09T15:39:38.147Z,35.40
2019-01-09T15:42:09.502Z,33.23
2019-01-09T15:44:40.063Z,32.33
2019-01-09T15:47:10.688Z,33.90
2019-01-09T15:49:41.410Z,32.87
2019-01-09T15:52:12.249Z,33.30
2019-01-09T15:54:42.913Z,34.00
2019-01-09T15:57:13.382Z,35.83
2019-01-09T15:59:43.971Z,35.97
2019-01-09T16:02:14.582Z,36.43
2019-01-09T16:04:45.224Z,36.27
2019-01-09T16:07:15.833Z,33.37
2019-01-09T16:09:48.137Z,34.93
2019-01-09T16:12:18.852Z,33.00
2019-01-09T16:14:49.467Z,36.00
2019-01-09T16:17:22.083Z,32.10
2019-01-09T16:19:52.802Z,34.70
2019-01-09T16:22:25.476Z,32.20
2019-01-09T16:24:55.728Z,33.20
2019-01-09T16:27:26.200Z,31.70
2019-01-09T16:29:59.823Z,30.17
2019-01-09T16:32:30.378Z,29.27
2019-01-09T16:35:01.008Z,29.37
2019-01-09T16:37:31.510Z,31.90
2019-01-09T16:40:02.133Z,31.57
2019-01-09T16:42:33.549Z,34.63
2019-01-09T16:45:04.750Z,33.73
2019-01-09T16:47:36.126Z,33.33
2019-01-09T16:50:20.019Z,34.20
2019-01-09T16:52:50.657Z,36.33
2019-01-09T16:55:21.401Z,35.80
2019-01-09T16:57:52.051Z,38.97
2019-01-09T17:00:31.923Z,37.50
2019-01-09T17:03:05.671Z,39.50
2019-01-09T17:05:37.439Z,37.40
2019-01-09T17:08:08.506Z,39.67
2019-01-09T17:10:39.253Z,40.43
2019-01-09T17:13:14.846Z,37.50
2019-01-09T17:15:47.018Z,42.30
2019-01-09T17:18:18.330Z,42.87
2019-01-09T17:20:52.162Z,43.03
2019-01-09T17:23:23.177Z,44.27
2019-01-09T17:25:56.723Z,47.43
2019-01-09T17:28:27.403Z,46.20
2019-01-09T17:30:58.518Z,45.10
2019-01-09T17:33:29.950Z,42.77
2019-01-09T17:36:01.196Z,42.37
2019-01-09T17:38:34.708Z,42.50
2019-01-09T17:41:10.408Z,42.73
2019-01-09T17:43:42.612Z,41.27
2019-01-09T17:46:14.525Z,39.10
2019-01-09T17:48:45.873Z,38.63
2019-01-09T17:51:16.889Z,41.43
2019-01-09T17:53:47.383Z,39.30
2019-01-09T17:56:19.059Z,39.13
2019-01-09T17:58:49.585Z,42.03
2019-01-09T18:01:20.149Z,40.37
2019-01-09T18:03:51.299Z,42.10
2019-01-09T18:06:21.986Z,39.47
2019-01-09T18:08:52.745Z,40.53
2019-01-09T18:11:23.237Z,39.20
2019-01-09T18:13:53.748Z,37.40
2019-01-09T18:16:25.323Z,36.03
2019-01-09T18:18:56.596Z,35.43
2019-01-09T18:21:27.175Z,36.00
2019-01-09T18:23:58.134Z,35.63
2019-01-09T18:26:28.868Z,36.20
2019-01-09T18:29:00.494Z,45.93
2019-01-09T18:31:47.620Z,46.73
2019-01-09T18:34:19.838Z,47.43
2019-01-09T18:37:22.138Z,48.87
2019-01-09T18:40:02.410Z,51.23
2019-01-09T18:43:09.453Z,48.53
2019-01-09T18:46:03.145Z,44.30
2019-01-09T18:48:55.649Z,48.10
2019-01-09T18:51:53.497Z,49.57
2019-01-09T18:54:24.180Z,46.73
2019-01-09T18:56:58.123Z,44.30
2019-01-09T18:59:28.651Z,45.37
2019-01-09T19:01:59.267Z,43.97
2019-01-09T19:04:29.901Z,44.13
2019-01-09T19:07:01.386Z,48.47
2019-01-09T19:09:32.378Z,45.07
2019-01-09T19:12:02.994Z,45.77
2019-01-09T19:14:33.589Z,46.27
2019-01-09T19:17:05.926Z,47.67
2019-01-09T19:19:36.626Z,50.03
2019-01-09T19:22:07.689Z,49.73
2019-01-09T19:24:38.909Z,53.27
2019-01-09T19:27:09.757Z,51.27
2019-01-09T19:29:42.323Z,50.93
2019-01-09T19:32:12.973Z,52.03
2019-01-09T19:34:49.548Z,50.10
2019-01-09T19:37:20.176Z,49.77
2019-01-09T19:39:50.833Z,46.73
2019-01-09T19:42:22.535Z,47.07
2019-01-09T19:44:53.203Z,47.10
2019-01-09T19:47:24.569Z,46.90
2019-01-09T19:49:55.522Z,47.00
2019-01-09T19:52:26.422Z,45.13
2019-01-09T19:54:57.045Z,46.17
2019-01-09T19:57:28.208Z,48.53
2019-01-09T19:59:59.171Z,45.77
2019-01-09T20:02:29.830Z,45.17
2019-01-09T20:05:00.565Z,45.47
2019-01-09T20:07:31.584Z,47.80
2019-01-09T20:10:02.600Z,50.17
2019-01-09T20:12:33.382Z,45.53
2019-01-09T20:15:07.251Z,47.40
2019-01-09T20:17:37.894Z,47.70
2019-01-09T20:20:13.540Z,47.03
2019-01-09T20:22:45.741Z,44.27
2019-01-09T20:25:17.019Z,44.10
2019-01-09T20:27:47.725Z,46.90
2019-01-09T20:30:29.370Z,48.80
2019-01-09T20:33:00.290Z,46.70
2019-01-09T20:35:33.507Z,49.33
2019-01-09T20:38:06.189Z,47.80
2019-01-09T20:40:39.708Z,47.03
2019-01-09T20:43:10.390Z,46.97
2019-01-09T20:45:41.032Z,49.00
2019-01-09T20:48:14.274Z,48.10
2019-01-09T20:50:48.376Z,48.47
2019-01-09T20:53:19.085Z,49.17
2019-01-09T20:55:49.751Z,50.20
2019-01-09T20:58:20.611Z,47.23
2019-01-09T21:00:51.938Z,50.63
2019-01-09T21:03:27.042Z,46.83
2019-01-09T21:05:58.002Z,49.93
2019-01-09T21:08:28.657Z,49.30
2019-01-09T21:10:59.252Z,49.43
2019-01-09T21:13:31.035Z,46.27
2019-01-09T21:16:02.354Z,45.30
2019-01-09T21:18:33.044Z,44.00
2019-01-09T21:21:07.523Z,42.93
2019-01-09T21:23:40.799Z,40.20
2019-01-09T21:26:14.305Z,35.27
2019-01-09T21:28:47.625Z,33.63
2019-01-09T21:31:22.061Z,33.40
2019-01-09T21:33:52.667Z,31.40
2019-01-09T21:36:25.429Z,31.77
2019-01-09T21:38:55.882Z,32.73
2019-01-09T21:41:29.136Z,29.53
2019-01-09T21:43:59.659Z,30.53
2019-01-09T21:46:33.387Z,29.60
2019-01-09T21:49:04.492Z,30.07
2019-01-09T21:51:35.068Z,30.67
2019-01-09T21:54:06.133Z,31.20
2019-01-09T21:56:38.178Z,31.73
2019-01-09T21:59:08.716Z,30.47
2019-01-09T22:01:42.041Z,30.83
2019-01-09T22:04:12.615Z,29.20
2019-01-09T22:06:43.550Z,28.60
2019-01-09T22:09:16.435Z,27.93
2019-01-09T22:11:47.510Z,29.73
2019-01-09T22:14:18.080Z,28.30
2019-01-09T22:16:48.620Z,29.57
2019-01-09T22:19:19.374Z,29.27
2019-01-09T22:21:50.122Z,29.87
2019-01-09T22:24:23.420Z,28.37
2019-01-09T22:26:55.250Z,31.20
2019-01-09T22:29:27.066Z,29.37
2019-01-09T22:32:01.147Z,30.50
2019-01-09T22:34:33.312Z,32.70
2019-01-09T22:37:03.959Z,42.33
2019-01-09T22:39:34.430Z,40.80
2019-01-09T22:42:11.736Z,41.13
2019-01-09T22:44:39.063Z,39.70
2019-01-09T22:47:09.765Z,41.53
2019-01-09T22:49:42.430Z,40.77
2019-01-09T22:52:15.235Z,42.13
2019-01-09T22:54:46.112Z,41.30
2019-01-09T22:57:19.156Z,41.60
2019-01-09T22:59:49.161Z,39.27
2019-01-09T23:02:21.809Z,40.27
2019-01-09T23:04:52.684Z,37.23
2019-01-09T23:07:23.315Z,38.17
2019-01-09T23:09:54.275Z,36.33
2019-01-09T23:12:25.023Z,36.67
2019-01-09T23:14:56.023Z,36.57
2019-01-09T23:17:29.900Z,35.87
2019-01-09T23:20:00.994Z,34.40
2019-01-09T23:22:32.914Z,35.87
2019-01-09T23:25:04.449Z,37.37
2019-01-09T23:27:35.767Z,35.37
2019-01-09T23:30:12.539Z,36.07
2019-01-09T23:32:43.319Z,34.87
2019-01-09T23:35:16.527Z,35.30
2019-01-09T23:37:47.549Z,33.93
2019-01-09T23:40:18.559Z,35.70
2019-01-09T23:42:53.856Z,35.00
2019-01-09T23:45:24.383Z,35.03
2019-01-09T23:47:55.088Z,35.73
2019-01-09T23:50:26.394Z,35.37
2019-01-09T23:52:57.560Z,36.43
2019-01-09T23:55:31.209Z,36.17
2019-01-09T23:58:02.096Z,36.03
